Time;durP1;ratioP1;P1;durP2;ratioP2;P2;SDS_P1;SDS_P2;PMS_P1;PMS_P2;Temp;Humidity;BMP_temperature;BMP_pressure;BME280_temperature;BME280_humidity;BME280_pressure;Samples;Min_cycle;Max_cycle;Signal;HPM_P1;HPM_P2
2023/02/19 00:00:31;;;;;;;3.17;1.65;;;;;;;;;;5055918;28;20029;-57
2023/02/19 00:02:57;;;;;;;1.98;1.20;;;;;;;;;;5055600;28;20108;-57
2023/02/19 00:05:23;;;;;;;5.05;2.15;;;;;;;;;;5056313;28;20048;-57
2023/02/19 00:07:49;;;;;;;2.90;1.70;;;;;;;;;;5056060;28;20036;-57
2023/02/19 00:10:15;;;;;;;4.22;2.20;;;;;;;;;;5056075;28;20405;-57
2023/02/19 00:12:41;;;;;;;2.97;2.08;;;;;;;;;;5055811;28;20029;-57
2023/02/19 00:15:07;;;;;;;2.88;1.95;;;;;;;;;;5055707;28;20033;-57
2023/02/19 00:17:33;;;;;;;3.08;1.48;;;;;;;;;;5055589;28;20368;-56
2023/02/19 00:19:59;;;;;;;4.80;1.65;;;;;;;;;;5055628;28;20033;-57
2023/02/19 00:22:25;;;;;;;2.45;1.30;;;;;;;;;;5055560;28;20036;-57
2023/02/19 00:24:51;;;;;;;3.45;1.92;;;;;;;;;;5055829;28;20075;-57
2023/02/19 00:27:17;;;;;;;2.65;1.55;;;;;;;;;;5055771;28;20056;-57
2023/02/19 00:29:43;;;;;;;2.33;1.38;;;;;;;;;;5055305;28;20021;-57
2023/02/19 00:32:08;;;;;;;6.90;1.73;;;;;;;;;;5055049;28;20514;-57
2023/02/19 00:34:35;;;;;;;1.98;1.27;;;;;;;;;;5055110;28;20383;-55
2023/02/19 00:37:01;;;;;;;3.22;1.90;;;;;;;;;;5055548;28;20040;-57
2023/02/19 00:39:27;;;;;;;3.33;1.77;;;;;;;;;;5055110;28;20028;-57
2023/02/19 00:41:53;;;;;;;1.98;1.23;;;;;;;;;;5055602;28;20025;-57
2023/02/19 00:44:19;;;;;;;3.50;1.58;;;;;;;;;;5055080;28;20086;-54
2023/02/19 00:46:46;;;;;;;2.90;1.40;;;;;;;;;;5054793;28;20020;-57
2023/02/19 00:49:20;;;;;;;2.78;1.50;;;;;;;;;;5055791;28;20439;-56
2023/02/19 00:51:46;;;;;;;3.50;1.13;;;;;;;;;;5055314;28;20024;-55
2023/02/19 00:54:12;;;;;;;2.85;1.38;;;;;;;;;;5054575;28;20032;-57
2023/02/19 00:56:38;;;;;;;1.88;1.17;;;;;;;;;;5055182;28;20455;-58
2023/02/19 00:59:04;;;;;;;2.47;1.20;;;;;;;;;;5054053;28;20115;-57
2023/02/19 01:01:30;;;;;;;3.22;1.38;;;;;;;;;;5055265;28;20048;-57
2023/02/19 01:03:56;;;;;;;1.98;1.17;;;;;;;;;;5054834;28;20032;-56
2023/02/19 01:06:22;;;;;;;1.75;1.05;;;;;;;;;;5054959;28;20116;-57
2023/02/19 01:08:48;;;;;;;1.35;0.90;;;;;;;;;;5054561;28;20029;-57
2023/02/19 01:11:15;;;;;;;1.45;0.90;;;;;;;;;;5054644;28;20025;-57
2023/02/19 01:13:41;;;;;;;1.90;1.00;;;;;;;;;;5054632;28;20045;-57
2023/02/19 01:16:08;;;;;;;2.15;1.13;;;;;;;;;;5054971;28;20035;-57
2023/02/19 01:18:35;;;;;;;2.78;1.33;;;;;;;;;;5054437;28;20029;-55
2023/02/19 01:21:05;;;;;;;2.33;1.48;;;;;;;;;;5054544;28;20029;-57
2023/02/19 01:23:31;;;;;;;;;;;;;;;;;;5055528;28;20406;-57
2023/02/19 01:25:57;;;;;;;1.83;1.00;;;;;;;;;;5054388;28;19905;-57
2023/02/19 01:28:23;;;;;;;2.17;1.27;;;;;;;;;;5054222;28;20025;-55
2023/02/19 01:30:49;;;;;;;1.48;1.00;;;;;;;;;;5054646;28;20029;-57
2023/02/19 01:33:15;;;;;;;2.08;1.38;;;;;;;;;;5054619;28;20348;-55
2023/02/19 01:35:41;;;;;;;1.23;0.80;;;;;;;;;;5054678;28;20025;-57
2023/02/19 01:38:07;;;;;;;2.38;1.23;;;;;;;;;;5054235;28;20063;-56
2023/02/19 01:40:33;;;;;;;2.15;1.20;;;;;;;;;;5053751;28;20029;-57
2023/02/19 01:42:59;;;;;;;2.58;1.25;;;;;;;;;;5054323;28;20036;-56
2023/02/19 01:45:29;;;;;;;1.80;1.08;;;;;;;;;;5054155;28;20371;-55
2023/02/19 01:48:19;;;;;;;2.50;1.15;;;;;;;;;;5053921;28;20512;-57
2023/02/19 01:50:57;;;;;;;2.22;1.25;;;;;;;;;;5050573;28;20048;-57
2023/02/19 01:53:25;;;;;;;2.30;1.27;;;;;;;;;;5054139;28;20386;-58
2023/02/19 01:55:54;;;;;;;3.10;1.48;;;;;;;;;;5054426;28;20047;-56
2023/02/19 01:58:20;;;;;;;4.35;1.67;;;;;;;;;;5053701;28;20025;-55
2023/02/19 02:00:46;;;;;;;2.25;1.38;;;;;;;;;;5054139;28;20025;-55
2023/02/19 02:03:12;;;;;;;2.40;1.83;;;;;;;;;;5054028;28;20031;-57
2023/02/19 02:06:00;;;;;;;3.25;1.98;;;;;;;;;;5054323;28;20033;-55
2023/02/19 02:11:11;;;;;;;2.40;1.48;;;;;;;;;;5053640;28;20036;-58
2023/02/19 02:13:38;;;;;;;2.08;1.23;;;;;;;;;;5053827;28;20049;-56
2023/02/19 02:16:23;;;;;;;2.17;1.35;;;;;;;;;;5054048;28;20029;-55
2023/02/19 02:19:07;;;;;;;1.73;1.02;;;;;;;;;;5053740;28;20412;-57
2023/02/19 02:21:35;;;;;;;2.42;1.42;;;;;;;;;;5053760;28;20090;-57
2023/02/19 02:24:07;;;;;;;2.05;1.38;;;;;;;;;;5053873;28;20029;-57
2023/02/19 02:26:45;;;;;;;2.90;1.73;;;;;;;;;;5053766;28;20454;-58
2023/02/19 02:29:22;;;;;;;1.92;1.25;;;;;;;;;;5053521;28;20368;-57
2023/02/19 02:31:50;;;;;;;1.83;1.02;;;;;;;;;;5053833;28;20367;-57
2023/02/19 02:34:52;;;;;;;2.78;1.38;;;;;;;;;;5053835;28;20037;-58
2023/02/19 02:37:18;;;;;;;3.17;1.30;;;;;;;;;;5031014;28;20030;-57
2023/02/19 02:39:45;;;;;;;2.50;1.70;;;;;;;;;;5049135;28;20361;-57
2023/02/19 02:42:26;;;;;;;2.35;1.25;;;;;;;;;;5054209;28;20028;-56
2023/02/19 02:47:41;;;;;;;3.05;1.55;;;;;;;;;;5053201;28;20040;-57
2023/02/19 02:50:08;;;;;;;2.05;1.17;;;;;;;;;;5053400;28;20029;-56
2023/02/19 02:55:21;;;;;;;2.80;1.50;;;;;;;;;;5053376;28;20052;-58
2023/02/19 02:57:47;;;;;;;2.38;1.52;;;;;;;;;;5053186;28;20061;-55
2023/02/19 03:00:14;;;;;;;2.22;1.35;;;;;;;;;;5053531;28;20455;-56
2023/02/19 03:02:42;;;;;;;2.38;1.25;;;;;;;;;;5052965;28;20028;-56
2023/02/19 03:07:58;;;;;;;2.28;1.55;;;;;;;;;;5052985;28;20618;-56
2023/02/19 03:10:40;;;;;;;2.80;1.13;;;;;;;;;;5053438;28;20474;-55
2023/02/19 03:21:28;;;;;;;2.05;1.20;;;;;;;;;;5054998;28;20059;-57
2023/02/19 03:26:41;;;;;;;2.05;1.08;;;;;;;;;;5056454;28;20075;-59
2023/02/19 03:29:23;;;;;;;1.90;1.25;;;;;;;;;;5056991;28;20075;-57
2023/02/19 03:31:51;;;;;;;2.20;1.50;;;;;;;;;;5056571;28;20090;-58
2023/02/19 03:34:21;;;;;;;2.78;1.40;;;;;;;;;;5056346;28;20078;-57
2023/02/19 03:36:54;;;;;;;1.85;1.25;;;;;;;;;;5056937;28;20037;-58
2023/02/19 03:39:22;;;;;;;1.75;1.15;;;;;;;;;;5056497;28;20120;-57
2023/02/19 03:42:04;;;;;;;2.03;1.10;;;;;;;;;;5055011;28;20180;-57
2023/02/19 03:44:33;;;;;;;3.47;1.42;;;;;;;;;;5056730;28;20216;-57
2023/02/19 03:47:02;;;;;;;2.80;1.38;;;;;;;;;;5056495;28;20029;-56
2023/02/19 03:49:32;;;;;;;2.65;1.55;;;;;;;;;;5055861;28;20510;-57
2023/02/19 03:52:08;;;;;;;2.00;1.02;;;;;;;;;;5055857;28;20079;-57
2023/02/19 03:54:36;;;;;;;1.63;1.02;;;;;;;;;;5056054;28;20479;-58
2023/02/19 03:57:10;;;;;;;2.97;1.20;;;;;;;;;;5056063;28;20035;-58
2023/02/19 03:59:45;;;;;;;1.48;0.85;;;;;;;;;;5056312;28;20119;-57
2023/02/19 04:02:13;;;;;;;2.08;1.42;;;;;;;;;;5056388;28;20029;-56
2023/02/19 04:04:44;;;;;;;1.92;1.02;;;;;;;;;;5056319;28;20060;-57
2023/02/19 04:07:10;;;;;;;1.85;1.42;;;;;;;;;;5056447;28;20486;-57
2023/02/19 04:09:39;;;;;;;1.48;0.80;;;;;;;;;;5056307;28;20021;-57
2023/02/19 04:12:06;;;;;;;1.92;0.82;;;;;;;;;;5056330;28;20021;-57
2023/02/19 04:14:50;;;;;;;1.52;0.85;;;;;;;;;;5055471;28;20490;-57
2023/02/19 04:17:19;;;;;;;1.80;1.02;;;;;;;;;;5056209;28;20036;-57
2023/02/19 04:19:47;;;;;;;1.83;1.10;;;;;;;;;;5055878;28;20094;-57
2023/02/19 04:22:15;;;;;;;1.40;0.80;;;;;;;;;;5055598;28;20029;-58
2023/02/19 04:24:44;;;;;;;1.60;0.80;;;;;;;;;;5056154;28;20154;-57
2023/02/19 04:27:10;;;;;;;2.28;0.82;;;;;;;;;;5055681;28;20025;-57
2023/02/19 04:29:36;;;;;;;1.45;0.63;;;;;;;;;;5055474;28;20108;-56
2023/02/19 04:32:02;;;;;;;1.35;0.65;;;;;;;;;;5055467;28;20087;-58
2023/02/19 04:34:28;;;;;;;2.03;0.95;;;;;;;;;;5055333;28;20037;-57
2023/02/19 04:36:54;;;;;;;0.90;0.40;;;;;;;;;;5055653;28;20032;-57
2023/02/19 04:39:20;;;;;;;1.33;0.43;;;;;;;;;;5055405;28;20025;-57
2023/02/19 04:41:46;;;;;;;0.95;0.50;;;;;;;;;;5055603;28;20078;-57
2023/02/19 04:44:12;;;;;;;0.82;0.38;;;;;;;;;;5055206;28;20112;-55
2023/02/19 04:46:39;;;;;;;1.63;0.45;;;;;;;;;;5055506;28;20024;-57
2023/02/19 04:49:05;;;;;;;0.80;0.32;;;;;;;;;;5055432;28;20035;-57
2023/02/19 04:51:31;;;;;;;0.60;0.30;;;;;;;;;;5054659;28;20429;-57
2023/02/19 04:53:57;;;;;;;0.68;0.40;;;;;;;;;;5054782;28;20041;-57
2023/02/19 04:56:23;;;;;;;0.70;0.30;;;;;;;;;;5055389;28;20442;-57
2023/02/19 04:58:49;;;;;;;1.13;0.85;;;;;;;;;;5054854;28;20451;-57
2023/02/19 05:01:15;;;;;;;1.48;0.47;;;;;;;;;;5055431;28;20035;-57
2023/02/19 05:03:41;;;;;;;0.70;0.20;;;;;;;;;;5054636;28;20031;-57
2023/02/19 05:06:09;;;;;;;0.30;0.17;;;;;;;;;;5055443;28;20017;-57
2023/02/19 05:08:35;;;;;;;0.28;0.10;;;;;;;;;;5054893;28;20443;-57
2023/02/19 05:11:01;;;;;;;0.57;0.25;;;;;;;;;;5054890;28;20035;-57
2023/02/19 05:13:27;;;;;;;0.35;0.10;;;;;;;;;;5054608;28;20406;-56
2023/02/19 05:15:54;;;;;;;0.60;0.17;;;;;;;;;;5054452;28;20382;-56
2023/02/19 05:18:20;;;;;;;0.20;0.10;;;;;;;;;;5054338;28;20025;-57
2023/02/19 05:20:46;;;;;;;0.47;0.20;;;;;;;;;;5054526;28;20390;-57
2023/02/19 05:23:12;;;;;;;1.33;0.30;;;;;;;;;;5054585;28;20514;-57
2023/02/19 05:25:38;;;;;;;0.13;0.10;;;;;;;;;;5054657;28;20052;-57
2023/02/19 05:28:16;;;;;;;0.38;0.10;;;;;;;;;;5054418;28;20056;-57
2023/02/19 05:30:49;;;;;;;0.22;0.13;;;;;;;;;;5054362;28;20021;-57
2023/02/19 05:33:16;;;;;;;0.00;0.00;;;;;;;;;;5054403;28;20036;-57
2023/02/19 05:35:43;;;;;;;0.20;0.10;;;;;;;;;;5053431;28;20064;-57
2023/02/19 05:38:09;;;;;;;0.20;0.10;;;;;;;;;;5054189;28;20025;-56
2023/02/19 05:40:35;;;;;;;0.17;0.05;;;;;;;;;;5054050;28;20028;-57
2023/02/19 05:43:01;;;;;;;0.20;0.08;;;;;;;;;;5054029;28;20067;-56
2023/02/19 05:45:27;;;;;;;0.50;0.20;;;;;;;;;;5054082;28;20083;-55
2023/02/19 05:47:53;;;;;;;0.20;0.08;;;;;;;;;;5053977;28;20025;-56
2023/02/19 05:50:19;;;;;;;0.00;0.00;;;;;;;;;;5054026;28;20025;-57
2023/02/19 05:52:44;;;;;;;0.08;0.08;;;;;;;;;;5054621;28;20035;-55
2023/02/19 05:55:11;;;;;;;0.45;0.20;;;;;;;;;;5054092;28;20120;-56
2023/02/19 05:57:40;;;;;;;0.25;0.10;;;;;;;;;;5054506;28;20029;-57
2023/02/19 06:00:07;;;;;;;0.40;0.10;;;;;;;;;;5053856;28;20065;-57
2023/02/19 06:02:33;;;;;;;0.10;0.08;;;;;;;;;;5054200;28;20025;-56
2023/02/19 06:04:59;;;;;;;0.22;0.00;;;;;;;;;;5053810;28;20494;-57
2023/02/19 06:07:24;;;;;;;0.00;0.00;;;;;;;;;;5053715;28;20083;-57
2023/02/19 06:09:50;;;;;;;0.05;0.00;;;;;;;;;;5053694;28;20021;-57
2023/02/19 06:12:16;;;;;;;0.10;0.08;;;;;;;;;;5053644;28;20025;-56
2023/02/19 06:14:42;;;;;;;0.13;0.00;;;;;;;;;;5053926;28;20081;-56
2023/02/19 06:17:08;;;;;;;0.15;0.03;;;;;;;;;;5053599;28;20036;-57
2023/02/19 06:19:34;;;;;;;0.00;0.00;;;;;;;;;;5053528;28;20095;-55
2023/02/19 06:22:00;;;;;;;0.10;0.00;;;;;;;;;;5053496;28;20025;-56
2023/02/19 06:24:26;;;;;;;0.15;0.10;;;;;;;;;;5053298;28;20100;-57
2023/02/19 06:26:52;;;;;;;0.00;0.00;;;;;;;;;;5054430;28;20053;-56
2023/02/19 06:29:18;;;;;;;0.35;0.13;;;;;;;;;;5053644;28;20052;-55
2023/02/19 06:31:44;;;;;;;0.15;0.05;;;;;;;;;;5054044;28;20428;-57
2023/02/19 06:34:10;;;;;;;0.00;0.00;;;;;;;;;;5053575;28;20417;-57
2023/02/19 06:36:36;;;;;;;0.00;0.00;;;;;;;;;;5053846;28;20067;-55
2023/02/19 06:39:03;;;;;;;0.00;0.00;;;;;;;;;;5054133;28;20029;-57
2023/02/19 06:41:29;;;;;;;0.00;0.00;;;;;;;;;;5053501;28;20052;-57
2023/02/19 06:43:56;;;;;;;0.00;0.00;;;;;;;;;;5053512;28;20044;-57
2023/02/19 06:46:23;;;;;;;1.08;0.25;;;;;;;;;;5053780;28;20521;-55
2023/02/19 06:48:48;;;;;;;0.15;0.10;;;;;;;;;;5054161;28;20426;-57
2023/02/19 06:51:18;;;;;;;0.00;0.00;;;;;;;;;;5053739;28;20060;-55
2023/02/19 06:53:44;;;;;;;0.68;0.20;;;;;;;;;;5053290;28;20375;-55
2023/02/19 06:56:24;;;;;;;0.25;0.10;;;;;;;;;;5055438;28;20029;-57
2023/02/19 06:58:50;;;;;;;0.57;0.23;;;;;;;;;;5057228;28;20052;-56
2023/02/19 07:01:16;;;;;;;0.15;0.08;;;;;;;;;;5057661;28;20025;-56
2023/02/19 07:03:42;;;;;;;0.32;0.13;;;;;;;;;;5057110;28;20544;-57
2023/02/19 07:06:08;;;;;;;0.22;0.10;;;;;;;;;;5057453;28;20135;-57
2023/02/19 07:08:34;;;;;;;0.82;0.38;;;;;;;;;;5057754;28;20033;-54
2023/02/19 07:11:00;;;;;;;0.90;0.30;;;;;;;;;;5056823;28;20025;-56
2023/02/19 07:13:27;;;;;;;0.25;0.10;;;;;;;;;;5057038;28;20175;-57
2023/02/19 07:16:00;;;;;;;0.68;0.25;;;;;;;;;;5056960;28;20106;-57
2023/02/19 07:18:26;;;;;;;0.73;0.30;;;;;;;;;;5056839;28;20029;-57
2023/02/19 07:20:52;;;;;;;0.38;0.20;;;;;;;;;;5057392;28;20025;-57
2023/02/19 07:23:18;;;;;;;0.77;0.40;;;;;;;;;;5056793;28;20048;-57
2023/02/19 07:25:44;;;;;;;0.60;0.30;;;;;;;;;;5056863;28;20021;-57
2023/02/19 07:28:10;;;;;;;0.43;0.20;;;;;;;;;;5056927;28;20025;-57
2023/02/19 07:30:36;;;;;;;0.63;0.30;;;;;;;;;;5057094;28;20096;-56
2023/02/19 07:33:02;;;;;;;0.90;0.35;;;;;;;;;;5056671;28;20140;-56
2023/02/19 07:35:28;;;;;;;1.25;0.30;;;;;;;;;;5056365;28;20039;-56
2023/02/19 07:37:54;;;;;;;0.55;0.30;;;;;;;;;;5056694;28;20375;-53
2023/02/19 07:40:20;;;;;;;0.43;0.20;;;;;;;;;;5056667;28;20032;-56
2023/02/19 07:42:46;;;;;;;0.80;0.30;;;;;;;;;;5056885;28;20143;-56
2023/02/19 07:45:12;;;;;;;0.25;0.10;;;;;;;;;;5056346;28;20482;-54
2023/02/19 07:47:38;;;;;;;0.68;0.30;;;;;;;;;;5055885;28;20104;-54
2023/02/19 07:50:04;;;;;;;0.85;0.40;;;;;;;;;;5056039;28;20029;-56
2023/02/19 07:52:30;;;;;;;1.40;0.70;;;;;;;;;;5055801;28;20397;-56
2023/02/19 07:54:56;;;;;;;0.93;0.47;;;;;;;;;;5056307;28;20029;-56
2023/02/19 07:57:22;;;;;;;0.45;0.28;;;;;;;;;;5055795;28;20478;-57
2023/02/19 07:59:48;;;;;;;1.38;0.77;;;;;;;;;;5055989;28;20352;-56
2023/02/19 08:05:03;;;;;;;0.75;0.40;;;;;;;;;;5055989;28;20395;-57
2023/02/19 08:07:32;;;;;;;1.05;0.47;;;;;;;;;;5055581;28;20021;-56
2023/02/19 08:13:18;;;;;;;1.02;0.52;;;;;;;;;;5054440;28;20188;-56
2023/02/19 08:15:44;;;;;;;0.95;0.32;;;;;;;;;;5056468;28;20060;-57
2023/02/19 08:18:11;;;;;;;0.85;0.38;;;;;;;;;;5055260;28;20463;-56
2023/02/19 08:20:37;;;;;;;1.48;0.75;;;;;;;;;;5056011;28;20083;-56
2023/02/19 08:23:02;;;;;;;1.00;0.50;;;;;;;;;;5055827;28;20029;-55
2023/02/19 08:25:29;;;;;;;0.45;0.20;;;;;;;;;;5054354;28;20039;-57
2023/02/19 08:27:55;;;;;;;0.80;0.40;;;;;;;;;;5055503;28;20025;-56
2023/02/19 08:30:21;;;;;;;1.17;0.50;;;;;;;;;;5056048;28;20029;-55
2023/02/19 08:32:47;;;;;;;0.60;0.25;;;;;;;;;;5055416;28;20025;-55
2023/02/19 08:35:13;;;;;;;0.63;0.30;;;;;;;;;;5055194;28;20120;-56
2023/02/19 08:37:39;;;;;;;0.52;0.25;;;;;;;;;;5055271;28;20104;-53
2023/02/19 08:40:05;;;;;;;0.52;0.22;;;;;;;;;;5055183;28;20383;-57
2023/02/19 08:42:31;;;;;;;0.90;0.50;;;;;;;;;;5055793;28;20029;-55
2023/02/19 08:44:57;;;;;;;1.23;0.55;;;;;;;;;;5055398;28;20111;-57
2023/02/19 08:47:23;;;;;;;2.35;0.70;;;;;;;;;;5055351;28;20028;-57
2023/02/19 08:49:49;;;;;;;0.93;0.70;;;;;;;;;;5055330;28;20067;-56
2023/02/19 08:52:14;;;;;;;0.45;0.25;;;;;;;;;;5054645;28;20025;-57
2023/02/19 08:54:40;;;;;;;2.55;0.60;;;;;;;;;;5055273;28;20037;-56
2023/02/19 08:57:06;;;;;;;0.93;0.43;;;;;;;;;;5055193;28;20053;-56
2023/02/19 08:59:32;;;;;;;0.93;0.45;;;;;;;;;;5054932;28;20025;-56
2023/02/19 09:01:58;;;;;;;0.52;0.30;;;;;;;;;;5055391;28;20025;-57
2023/02/19 09:04:24;;;;;;;1.35;0.60;;;;;;;;;;5054813;28;20029;-56
2023/02/19 09:06:50;;;;;;;1.13;0.50;;;;;;;;;;5055144;28;20408;-57
2023/02/19 09:09:16;;;;;;;0.55;0.20;;;;;;;;;;5054489;28;20033;-57
2023/02/19 09:11:42;;;;;;;0.57;0.30;;;;;;;;;;5054661;28;20043;-56
2023/02/19 09:14:08;;;;;;;0.95;0.50;;;;;;;;;;5054472;28;20122;-57
2023/02/19 09:16:35;;;;;;;1.08;0.38;;;;;;;;;;5054283;28;20025;-58
2023/02/19 09:19:01;;;;;;;1.65;0.68;;;;;;;;;;5053725;28;20048;-58
2023/02/19 09:21:27;;;;;;;0.68;0.32;;;;;;;;;;5054887;28;20032;-57
2023/02/19 09:23:53;;;;;;;1.17;0.50;;;;;;;;;;5054823;28;20187;-58
2023/02/19 09:26:19;;;;;;;1.17;0.60;;;;;;;;;;5054668;28;20080;-57
2023/02/19 09:28:45;;;;;;;0.30;0.15;;;;;;;;;;5054711;28;20029;-58
2023/02/19 09:31:12;;;;;;;1.38;0.32;;;;;;;;;;5054941;28;20029;-57
2023/02/19 09:33:42;;;;;;;1.65;0.25;;;;;;;;;;5054718;28;20505;-57
2023/02/19 09:36:08;;;;;;;2.40;0.63;;;;;;;;;;5054232;28;20112;-57
2023/02/19 09:38:34;;;;;;;0.50;0.30;;;;;;;;;;5054150;28;20067;-57
2023/02/19 09:41:05;;;;;;;1.08;0.55;;;;;;;;;;5054224;28;20375;-57
2023/02/19 09:43:31;;;;;;;1.02;0.47;;;;;;;;;;5054466;28;20029;-58
2023/02/19 09:46:02;;;;;;;1.58;0.52;;;;;;;;;;5054869;28;20021;-58
2023/02/19 09:48:28;;;;;;;1.90;1.00;;;;;;;;;;5054660;28;20021;-57
2023/02/19 09:50:54;;;;;;;0.88;0.50;;;;;;;;;;5054070;28;20053;-57
2023/02/19 09:53:22;;;;;;;0.95;0.60;;;;;;;;;;5054517;28;20403;-54
2023/02/19 09:55:48;;;;;;;1.42;0.65;;;;;;;;;;5054539;28;20064;-55
2023/02/19 09:58:17;;;;;;;1.45;0.70;;;;;;;;;;5053884;28;20029;-58
2023/02/19 10:00:45;;;;;;;1.17;0.35;;;;;;;;;;5053569;28;20053;-57
2023/02/19 10:03:29;;;;;;;1.17;0.43;;;;;;;;;;5053508;28;20025;-58
2023/02/19 10:05:56;;;;;;;1.02;0.32;;;;;;;;;;5054377;28;20021;-57
2023/02/19 10:08:22;;;;;;;1.00;0.57;;;;;;;;;;5053501;28;20021;-58
2023/02/19 10:10:48;;;;;;;2.00;0.88;;;;;;;;;;5053286;28;20060;-58
2023/02/19 10:13:18;;;;;;;1.90;0.63;;;;;;;;;;5053317;28;20055;-58
2023/02/19 10:15:46;;;;;;;1.13;0.47;;;;;;;;;;5053735;28;20091;-56
2023/02/19 10:18:12;;;;;;;1.42;0.43;;;;;;;;;;5053656;28;20036;-57
2023/02/19 10:20:39;;;;;;;1.00;0.50;;;;;;;;;;5053870;28;20059;-58
2023/02/19 10:23:06;;;;;;;1.45;0.52;;;;;;;;;;5053814;28;20032;-58
2023/02/19 10:25:33;;;;;;;0.28;0.20;;;;;;;;;;5053784;28;20029;-58
2023/02/19 10:28:00;;;;;;;1.13;0.43;;;;;;;;;;5053801;28;20021;-56
2023/02/19 10:30:33;;;;;;;1.27;0.52;;;;;;;;;;5056165;28;20032;-57
2023/02/19 10:33:01;;;;;;;1.52;0.70;;;;;;;;;;5057743;28;20064;-55
2023/02/19 10:35:28;;;;;;;1.30;0.60;;;;;;;;;;5057651;28;20039;-57
2023/02/19 10:37:54;;;;;;;0.70;0.50;;;;;;;;;;5057200;28;20368;-56
2023/02/19 10:40:21;;;;;;;2.25;0.80;;;;;;;;;;5058112;28;20021;-55
2023/02/19 10:42:49;;;;;;;2.95;0.70;;;;;;;;;;5058426;28;20025;-56
2023/02/19 10:45:23;;;;;;;2.03;0.90;;;;;;;;;;5058123;28;20032;-55
2023/02/19 10:47:49;;;;;;;1.42;0.73;;;;;;;;;;5057457;28;20022;-56
2023/02/19 10:50:22;;;;;;;0.88;0.40;;;;;;;;;;5057590;28;20025;-57
2023/02/19 10:52:51;;;;;;;2.03;0.47;;;;;;;;;;5057231;28;20075;-56
2023/02/19 10:55:30;;;;;;;0.82;0.40;;;;;;;;;;5057541;28;20083;-55
2023/02/19 10:57:56;;;;;;;2.55;0.50;;;;;;;;;;5057168;28;20379;-58
2023/02/19 11:00:29;;;;;;;0.93;0.38;;;;;;;;;;5057008;28;20528;-57
2023/02/19 11:03:33;;;;;;;2.40;0.63;;;;;;;;;;5056933;28;20032;-58
2023/02/19 11:06:01;;;;;;;1.40;0.52;;;;;;;;;;5035371;28;20053;-57
2023/02/19 11:08:27;;;;;;;1.85;1.10;;;;;;;;;;5035311;28;20107;-57
2023/02/19 11:10:53;;;;;;;3.50;0.40;;;;;;;;;;5045622;28;20120;-55
2023/02/19 11:13:31;;;;;;;4.20;0.70;;;;;;;;;;5057422;28;20048;-58
2023/02/19 11:15:57;;;;;;;1.50;0.68;;;;;;;;;;5057284;28;20025;-56
2023/02/19 11:18:28;;;;;;;2.42;0.70;;;;;;;;;;5056857;28;20036;-58
2023/02/19 11:20:55;;;;;;;1.60;0.50;;;;;;;;;;5056853;28;20025;-58
2023/02/19 11:23:24;;;;;;;3.25;0.73;;;;;;;;;;5056754;28;20481;-56
2023/02/19 11:25:56;;;;;;;3.55;0.63;;;;;;;;;;5057019;28;20082;-55
2023/02/19 11:28:29;;;;;;;6.05;0.50;;;;;;;;;;5056643;28;20431;-54
2023/02/19 11:30:55;;;;;;;1.23;0.55;;;;;;;;;;5057140;28;20036;-56
2023/02/19 11:33:26;;;;;;;1.13;0.40;;;;;;;;;;5056702;28;20025;-55
2023/02/19 11:35:54;;;;;;;2.03;1.05;;;;;;;;;;5056715;28;20096;-56
2023/02/19 11:38:21;;;;;;;5.47;1.02;;;;;;;;;;5056407;28;20028;-55
2023/02/19 11:40:53;;;;;;;0.70;0.30;;;;;;;;;;5056322;28;20025;-55
2023/02/19 11:43:19;;;;;;;0.95;0.57;;;;;;;;;;5055665;28;20021;-57
2023/02/19 11:45:53;;;;;;;2.42;0.75;;;;;;;;;;5056392;28;20017;-55
2023/02/19 11:48:28;;;;;;;1.63;0.60;;;;;;;;;;5056662;28;20355;-59
2023/02/19 11:50:54;;;;;;;1.52;0.55;;;;;;;;;;5056245;28;20029;-56
2023/02/19 11:53:31;;;;;;;1.00;0.50;;;;;;;;;;5056126;28;20375;-55
2023/02/19 11:56:15;;;;;;;2.17;0.60;;;;;;;;;;5056994;28;20029;-58
2023/02/19 11:58:41;;;;;;;2.50;0.40;;;;;;;;;;5055678;28;20486;-58
2023/02/19 12:01:10;;;;;;;0.98;0.45;;;;;;;;;;5056028;28;20035;-58
2023/02/19 12:03:55;;;;;;;2.22;0.98;;;;;;;;;;5056328;28;20517;-58
2023/02/19 12:06:39;;;;;;;0.93;0.40;;;;;;;;;;5056357;28;20078;-55
2023/02/19 12:09:11;;;;;;;2.53;0.60;;;;;;;;;;5055731;28;20108;-56
2023/02/19 12:11:37;;;;;;;2.10;0.63;;;;;;;;;;5055245;28;20340;-58
2023/02/19 12:14:18;;;;;;;4.65;1.00;;;;;;;;;;5055570;28;20056;-56
2023/02/19 12:16:51;;;;;;;1.02;0.57;;;;;;;;;;5056066;28;20037;-56
2023/02/19 12:19:32;;;;;;;1.30;0.35;;;;;;;;;;5055850;28;20033;-55
2023/02/19 12:22:25;;;;;;;2.95;1.00;;;;;;;;;;5056170;28;20064;-58
2023/02/19 12:24:59;;;;;;;0.50;0.20;;;;;;;;;;5054542;28;20048;-58
2023/02/19 12:27:39;;;;;;;7.07;0.80;;;;;;;;;;5056317;28;20052;-59
2023/02/19 12:30:24;;;;;;;1.70;0.55;;;;;;;;;;5055664;28;20479;-57
2023/02/19 12:33:17;;;;;;;0.40;0.20;;;;;;;;;;5055778;28;20029;-56
2023/02/19 12:35:46;;;;;;;0.88;0.45;;;;;;;;;;5055669;28;20037;-57
2023/02/19 12:38:22;;;;;;;1.05;0.32;;;;;;;;;;5055845;28;20029;-57
2023/02/19 12:40:57;;;;;;;1.45;0.50;;;;;;;;;;5055271;28;20379;-56
2023/02/19 12:43:24;;;;;;;4.53;0.70;;;;;;;;;;5055325;28;20506;-58
2023/02/19 12:46:22;;;;;;;1.77;0.50;;;;;;;;;;5056078;28;20025;-57
2023/02/19 12:48:52;;;;;;;1.80;0.82;;;;;;;;;;5042843;28;20380;-58
2023/02/19 12:51:30;;;;;;;3.08;0.63;;;;;;;;;;5055121;28;20076;-57
2023/02/19 12:54:00;;;;;;;0.93;0.40;;;;;;;;;;5053541;28;20481;-57
2023/02/19 12:56:31;;;;;;;1.40;0.38;;;;;;;;;;5055445;28;20033;-58
2023/02/19 12:59:03;;;;;;;0.50;0.20;;;;;;;;;;5055023;28;20367;-58
2023/02/19 13:01:34;;;;;;;1.15;0.40;;;;;;;;;;5054829;28;20017;-58
2023/02/19 13:04:26;;;;;;;0.75;0.32;;;;;;;;;;5054839;28;20025;-56
2023/02/19 13:07:08;;;;;;;1.52;0.52;;;;;;;;;;5053260;28;20040;-57
2023/02/19 13:09:40;;;;;;;2.17;0.43;;;;;;;;;;5054588;28;20014;-58
2023/02/19 13:12:25;;;;;;;6.43;1.00;;;;;;;;;;5055190;28;20056;-58
2023/02/19 13:14:54;;;;;;;4.00;0.50;;;;;;;;;;5055159;28;20498;-58
2023/02/19 13:17:41;;;;;;;1.25;0.43;;;;;;;;;;5054625;28;20021;-55
2023/02/19 13:20:23;;;;;;;1.00;0.50;;;;;;;;;;5055003;28;20029;-58
2023/02/19 13:26:03;;;;;;;0.70;0.30;;;;;;;;;;5054513;28;20052;-57
2023/02/19 13:28:47;;;;;;;3.03;0.68;;;;;;;;;;5054424;28;20119;-58
2023/02/19 13:31:25;;;;;;;4.50;0.75;;;;;;;;;;5054368;28;20031;-55
2023/02/19 13:34:08;;;;;;;0.90;0.50;;;;;;;;;;5054520;28;20029;-58
2023/02/19 13:36:34;;;;;;;0.80;0.40;;;;;;;;;;5054804;28;20364;-58
2023/02/19 13:39:04;;;;;;;3.55;0.52;;;;;;;;;;5054497;28;20029;-58
2023/02/19 13:41:49;;;;;;;3.47;0.85;;;;;;;;;;5054717;28;20363;-58
2023/02/19 13:44:18;;;;;;;1.05;0.38;;;;;;;;;;5054430;28;20094;-56
2023/02/19 13:46:45;;;;;;;1.92;0.68;;;;;;;;;;5054357;28;20052;-57
2023/02/19 13:49:35;;;;;;;1.23;0.47;;;;;;;;;;5054612;28;20398;-58
2023/02/19 13:52:02;;;;;;;2.92;0.57;;;;;;;;;;5054588;28;20052;-56
2023/02/19 13:54:28;;;;;;;1.00;0.55;;;;;;;;;;5053921;28;20037;-57
2023/02/19 13:57:12;;;;;;;1.10;0.45;;;;;;;;;;5054431;28;20017;-58
2023/02/19 13:59:39;;;;;;;1.02;0.47;;;;;;;;;;5053903;28;20036;-57
2023/02/19 14:02:10;;;;;;;1.13;0.40;;;;;;;;;;5053718;28;20029;-56
2023/02/19 14:04:36;;;;;;;;;;;;;;;;;;5054654;28;20033;-56
2023/02/19 14:07:05;;;;;;;0.80;0.40;;;;;;;;;;5053730;28;19904;-55
2023/02/19 14:09:34;;;;;;;4.38;0.63;;;;;;;;;;5053406;28;20029;-56
2023/02/19 14:12:09;;;;;;;2.38;0.90;;;;;;;;;;5053566;28;20112;-56
2023/02/19 14:14:39;;;;;;;2.35;0.70;;;;;;;;;;5054458;28;20088;-55
2023/02/19 14:17:12;;;;;;;1.77;0.65;;;;;;;;;;5053242;28;20047;-56
2023/02/19 14:19:41;;;;;;;1.80;0.65;;;;;;;;;;5053411;28;20090;-57
2023/02/19 14:22:26;;;;;;;1.33;0.47;;;;;;;;;;5053565;28;20029;-57
2023/02/19 14:24:53;;;;;;;1.48;0.40;;;;;;;;;;5053315;28;20033;-57
2023/02/19 14:27:19;;;;;;;2.05;0.50;;;;;;;;;;5053670;28;20393;-56
2023/02/19 14:29:45;;;;;;;3.33;1.02;;;;;;;;;;5053520;28;20037;-56
2023/02/19 14:32:16;;;;;;;2.72;0.88;;;;;;;;;;5052066;28;20036;-57
2023/02/19 14:34:44;;;;;;;4.40;0.90;;;;;;;;;;5053511;28;20028;-57
2023/02/19 14:37:17;;;;;;;3.67;1.05;;;;;;;;;;5053709;28;20033;-57
2023/02/19 14:39:44;;;;;;;1.10;0.50;;;;;;;;;;5054241;28;20071;-57
2023/02/19 14:42:32;;;;;;;1.52;0.73;;;;;;;;;;5053541;28;20044;-58
2023/02/19 14:45:00;;;;;;;4.68;0.75;;;;;;;;;;5053608;28;20025;-57
2023/02/19 14:47:29;;;;;;;1.67;0.50;;;;;;;;;;5053306;28;20079;-55
2023/02/19 14:50:00;;;;;;;0.90;0.40;;;;;;;;;;5053573;28;20363;-57
2023/02/19 14:52:35;;;;;;;3.25;0.90;;;;;;;;;;5053610;28;20429;-57
2023/02/19 14:55:05;;;;;;;1.98;0.80;;;;;;;;;;5053905;28;20025;-56
2023/02/19 14:57:39;;;;;;;2.03;0.88;;;;;;;;;;5053676;28;20032;-56
2023/02/19 15:00:36;;;;;;;0.98;0.50;;;;;;;;;;5053366;28;20108;-58
2023/02/19 15:03:02;;;;;;;2.05;1.85;;;;;;;;;;5048917;28;20523;-59
2023/02/19 15:05:32;;;;;;;3.10;0.85;;;;;;;;;;5053085;28;20120;-58
2023/02/19 15:08:00;;;;;;;0.68;0.60;;;;;;;;;;5053101;28;20032;-57
2023/02/19 15:10:30;;;;;;;1.15;0.60;;;;;;;;;;5053088;28;20124;-58
2023/02/19 15:12:58;;;;;;;4.15;0.82;;;;;;;;;;5052927;28;20080;-59
2023/02/19 15:15:27;;;;;;;1.48;0.47;;;;;;;;;;5051960;28;20475;-58
2023/02/19 15:17:55;;;;;;;3.50;0.73;;;;;;;;;;5055277;28;20025;-58
2023/02/19 15:20:25;;;;;;;3.20;0.95;;;;;;;;;;5057333;28;20025;-58
2023/02/19 15:22:51;;;;;;;;;;;;;;;;;;5057100;28;20025;-59
2023/02/19 15:25:20;;;;;;;1.63;0.60;;;;;;;;;;5056939;28;19915;-59
2023/02/19 15:27:46;;;;;;;1.10;0.45;;;;;;;;;;5057295;28;20029;-58